createdAt,value
2019-02-14T12:36:58.176Z,22240.00
2019-02-14T12:37:58.179Z,23008.00
2019-02-14T12:38:58.182Z,25152.00
2019-02-14T12:39:58.184Z,31552.00
2019-02-14T12:40:58.183Z,36608.00
2019-02-14T12:41:58.195Z,39616.00
2019-02-14T12:42:58.189Z,51232.00
2019-02-14T12:43:58.196Z,57088.00
2019-02-14T12:44:58.198Z,48000.00
2019-02-14T12:45:58.205Z,40704.00
2019-02-14T12:46:58.209Z,39232.00
2019-02-14T12:47:58.216Z,36160.00
2019-02-14T12:48:58.222Z,37408.00
2019-02-14T12:49:58.227Z,42912.00
2019-02-14T12:50:58.235Z,40640.00
2019-02-14T12:51:58.242Z,35136.00
2019-02-14T12:52:58.247Z,38016.00
2019-02-14T12:53:58.258Z,39072.00
2019-02-14T12:54:58.262Z,36704.00
2019-02-14T12:55:58.273Z,35296.00
2019-02-14T12:56:58.278Z,33376.00
2019-02-14T12:57:58.290Z,30880.00
2019-02-14T12:58:58.294Z,28928.00
2019-02-14T12:59:58.304Z,28224.00
2019-02-14T13:00:58.312Z,29696.00
2019-02-14T13:01:58.325Z,29056.00
2019-02-14T13:02:58.377Z,29280.00
2019-02-14T13:03:58.341Z,31520.00
2019-02-14T13:04:58.349Z,31136.00
2019-02-14T13:05:58.362Z,30912.00
2019-02-14T13:06:58.365Z,31200.00
2019-02-14T13:07:58.378Z,29824.00
2019-02-14T13:08:58.382Z,31424.00
2019-02-14T13:09:58.392Z,30432.00
2019-02-14T13:10:58.400Z,29600.00
2019-02-14T13:11:58.411Z,30016.00
2019-02-14T13:12:58.420Z,36576.00
2019-02-14T13:13:58.439Z,35040.00
2019-02-14T13:14:58.437Z,32832.00
2019-02-14T13:15:58.449Z,37984.00
2019-02-14T13:16:58.455Z,41856.00
2019-02-14T13:17:58.470Z,40512.00
2019-02-14T13:18:58.477Z,46912.00
2019-02-14T13:19:58.485Z,53024.00
2019-02-14T13:20:58.491Z,58944.00
2019-02-14T13:21:58.519Z,67104.00
2019-02-14T13:22:58.517Z,72864.00
2019-02-14T13:23:58.526Z,72832.00
2019-02-14T13:24:58.764Z,72160.00
2019-02-14T13:25:58.536Z,67584.00
2019-02-14T13:26:58.543Z,59488.00
2019-02-14T13:27:58.554Z,52992.00
2019-02-14T13:28:58.561Z,45408.00
2019-02-14T13:29:58.571Z,42272.00
2019-02-14T13:30:58.589Z,40416.00
2019-02-14T13:31:58.593Z,32672.00
2019-02-14T13:32:58.596Z,30976.00
2019-02-14T13:33:58.626Z,33760.00
2019-02-14T13:34:58.615Z,31680.00
2019-02-14T13:35:58.634Z,26368.00
2019-02-14T13:37:01.533Z,19808.00
2019-02-14T13:37:58.654Z,16256.00
2019-02-14T13:38:58.674Z,13432.00
2019-02-14T13:39:58.665Z,11892.00
2019-02-14T13:40:58.674Z,10884.00
2019-02-14T13:41:58.687Z,10484.00
2019-02-14T13:42:58.692Z,10148.00
2019-02-14T13:43:58.708Z,9160.00
2019-02-14T13:44:58.716Z,9216.00
2019-02-14T13:45:58.727Z,9068.00
2019-02-14T13:46:58.736Z,8920.00
2019-02-14T13:47:58.746Z,8676.00
2019-02-14T13:48:58.756Z,8500.00
2019-02-14T13:49:58.768Z,8316.00
2019-02-14T13:50:58.774Z,8136.00
2019-02-14T13:51:58.789Z,7984.00
2019-02-14T13:52:58.800Z,7816.00
2019-02-14T13:53:58.809Z,7804.00
2019-02-14T13:54:58.856Z,7676.00
2019-02-14T13:55:58.830Z,7520.00
2019-02-14T13:56:58.838Z,7308.00
2019-02-14T13:57:58.850Z,7184.00
2019-02-14T13:58:58.859Z,7100.00
2019-02-14T13:59:58.874Z,6960.00
2019-02-14T14:00:58.878Z,6824.00
2019-02-14T14:01:58.889Z,6776.00
2019-02-14T14:02:58.901Z,6692.00
2019-02-14T14:03:58.913Z,6548.00
2019-02-14T14:04:58.922Z,6412.00
2019-02-14T14:05:58.935Z,6320.00
2019-02-14T14:06:58.943Z,6060.00
2019-02-14T14:07:58.954Z,5768.00
2019-02-14T14:08:58.965Z,5588.00
2019-02-14T14:09:58.973Z,4908.00
2019-02-14T14:10:58.981Z,5368.00
2019-02-14T14:11:58.994Z,5504.00
2019-02-14T14:12:59.017Z,5656.00
2019-02-14T14:13:59.015Z,5672.00
2019-02-14T14:14:59.024Z,5548.00
2019-02-14T14:15:59.039Z,5520.00
2019-02-14T14:16:59.046Z,5348.00
2019-02-14T14:17:59.057Z,5148.00
2019-02-14T14:19:06.209Z,5164.00
2019-02-14T14:19:59.479Z,5200.00
2019-02-14T14:20:59.082Z,5092.00
2019-02-14T14:21:59.093Z,5020.00
2019-02-14T14:22:59.100Z,4928.00
2019-02-14T14:23:59.115Z,4924.00
2019-02-14T14:24:59.122Z,4868.00
2019-02-14T14:25:59.131Z,4756.00
2019-02-14T14:26:59.138Z,4652.00
2019-02-14T14:27:59.151Z,4464.00
2019-02-14T14:28:59.167Z,4228.00
2019-02-14T14:29:59.167Z,4064.00
2019-02-14T14:30:59.173Z,3940.00
2019-02-14T14:31:59.183Z,3828.00
2019-02-14T14:32:59.189Z,3652.00
2019-02-14T14:33:59.200Z,3376.00
2019-02-14T14:34:59.208Z,3292.00
2019-02-14T14:35:59.219Z,3384.00
2019-02-14T14:36:59.231Z,3332.00
2019-02-14T14:37:59.238Z,3248.00
2019-02-14T14:38:59.244Z,3320.00
2019-02-14T14:39:59.254Z,3348.00
2019-02-14T14:40:59.259Z,3336.00
2019-02-14T14:41:59.268Z,3344.00
2019-02-14T14:42:59.275Z,3340.00
2019-02-14T14:43:59.289Z,3312.00
2019-02-14T14:44:59.292Z,3256.00
2019-02-14T14:46:00.314Z,3200.00
2019-02-14T14:46:59.308Z,3100.00
2019-02-14T14:47:59.320Z,3004.00
2019-02-14T14:48:59.333Z,2924.00
2019-02-14T14:49:59.342Z,2916.00
2019-02-14T14:50:59.342Z,2868.00
2019-02-14T14:51:59.348Z,2888.00
2019-02-14T14:52:59.351Z,2936.00
2019-02-14T14:53:59.359Z,2964.00
2019-02-14T14:54:59.363Z,2904.00
2019-02-14T14:55:59.375Z,2844.00
2019-02-14T14:56:59.378Z,2804.00
2019-02-14T14:57:59.387Z,2848.00
2019-02-14T14:58:59.391Z,2800.00
2019-02-14T14:59:59.399Z,2700.00
2019-02-14T15:00:59.403Z,2636.00
2019-02-14T15:01:59.411Z,2780.00
2019-02-14T15:02:59.415Z,2988.00
2019-02-14T15:03:59.421Z,3136.00
2019-02-14T15:04:59.586Z,3116.00
2019-02-14T15:05:59.433Z,2716.00
2019-02-14T15:06:59.434Z,2404.00
2019-02-14T15:07:59.445Z,2324.00
2019-02-14T15:08:59.449Z,2228.00
2019-02-14T15:09:59.456Z,2164.00
2019-02-14T15:10:59.457Z,2076.00
2019-02-14T15:11:59.461Z,1948.00
2019-02-14T15:12:59.465Z,1908.00
2019-02-14T15:13:59.472Z,1864.00
2019-02-14T15:14:59.475Z,1856.00
2019-02-14T15:15:59.485Z,1828.00
2019-02-14T15:16:59.486Z,1780.00
2019-02-14T15:17:59.496Z,1744.00
2019-02-14T15:18:59.497Z,1712.00
2019-02-14T15:19:59.503Z,1664.00
2019-02-14T15:20:59.508Z,1632.00
2019-02-14T15:21:59.513Z,1612.00
2019-02-14T15:22:59.516Z,1584.00
2019-02-14T15:23:59.522Z,1556.00
2019-02-14T15:24:59.524Z,1504.00
2019-02-14T15:25:59.530Z,1424.00
2019-02-14T15:26:59.532Z,1328.00
2019-02-14T15:27:59.542Z,1232.00
2019-02-14T15:28:59.544Z,1044.00
2019-02-14T15:29:59.553Z,904.00
2019-02-14T15:30:59.554Z,820.00
2019-02-14T15:31:59.559Z,748.00
2019-02-14T15:32:59.566Z,716.00
2019-02-14T15:33:59.568Z,700.00
2019-02-14T15:34:59.567Z,704.00
2019-02-14T15:35:59.574Z,704.00
2019-02-14T15:36:59.573Z,720.00
2019-02-14T15:37:59.614Z,728.00
2019-02-14T15:38:59.577Z,728.00
2019-02-14T15:40:08.853Z,720.00
2019-02-14T15:40:59.584Z,716.00
2019-02-14T15:41:59.589Z,716.00
2019-02-14T15:42:59.599Z,716.00
2019-02-14T15:43:59.591Z,704.00
2019-02-14T15:44:59.598Z,692.00
2019-02-14T15:45:59.593Z,672.00
2019-02-14T15:46:59.593Z,664.00
2019-02-14T15:47:59.598Z,644.00
2019-02-14T15:48:59.610Z,636.00
2019-02-14T15:49:59.598Z,628.00
2019-02-14T15:50:59.602Z,624.00
2019-02-14T15:51:59.597Z,624.00
2019-02-14T15:52:59.595Z,620.00
2019-02-14T15:53:59.600Z,616.00
2019-02-14T15:54:59.969Z,596.00
2019-02-14T15:55:59.601Z,560.00
2019-02-14T15:56:59.598Z,536.00
2019-02-14T15:57:59.599Z,520.00
2019-02-14T15:58:59.596Z,500.00
2019-02-14T15:59:59.597Z,492.00
2019-02-14T16:00:59.593Z,480.00
2019-02-14T16:01:59.594Z,472.00
2019-02-14T16:02:59.591Z,464.00
2019-02-14T16:03:59.592Z,452.00
2019-02-14T16:04:59.589Z,440.00
2019-02-14T16:05:59.592Z,432.00
2019-02-14T16:06:59.586Z,424.00
2019-02-14T16:08:00.508Z,412.00
2019-02-14T16:08:59.588Z,404.00
2019-02-14T16:10:01.047Z,396.00
2019-02-14T16:10:59.582Z,384.00
2019-02-14T16:11:59.582Z,376.00
2019-02-14T16:12:59.579Z,364.00
2019-02-14T16:13:59.578Z,360.00
2019-02-14T16:14:59.573Z,348.00
2019-02-14T16:15:59.578Z,336.00
2019-02-14T16:16:59.572Z,328.00
2019-02-14T16:18:01.627Z,316.00
2019-02-14T16:18:59.569Z,304.00
2019-02-14T16:19:59.781Z,288.00
2019-02-14T16:20:59.563Z,276.00
2019-02-14T16:21:59.563Z,264.00
2019-02-14T16:22:59.558Z,252.00
2019-02-14T16:23:59.556Z,240.00
2019-02-14T16:24:59.551Z,228.00
2019-02-14T16:25:59.565Z,224.00
2019-02-14T16:27:01.166Z,208.00
2019-02-14T16:27:59.549Z,200.00
2019-02-14T16:29:01.608Z,188.00
2019-02-14T16:29:59.543Z,180.00
2019-02-14T16:30:59.547Z,168.00
2019-02-14T16:31:59.536Z,160.00
2019-02-14T16:32:59.531Z,148.00
2019-02-14T16:33:59.529Z,140.00
2019-02-14T16:34:59.525Z,132.00
2019-02-14T16:35:59.528Z,124.00
2019-02-14T16:36:59.527Z,112.00
2019-02-14T16:37:59.518Z,104.00
2019-02-14T16:39:01.414Z,96.00
2019-02-14T16:39:59.514Z,88.00
2019-02-14T16:40:59.810Z,80.00
2019-02-14T16:41:59.507Z,76.00
2019-02-14T16:42:59.505Z,68.00
2019-02-14T16:43:59.500Z,60.00
2019-02-14T16:44:59.495Z,52.00
2019-02-14T16:45:59.494Z,52.00
2019-02-14T16:46:59.737Z,48.00
2019-02-14T16:47:59.489Z,40.00
2019-02-14T16:48:59.483Z,36.00
2019-02-14T16:49:59.483Z,32.00
2019-02-14T16:50:59.478Z,28.00
2019-02-14T16:51:59.473Z,24.00
2019-02-14T16:52:59.472Z,20.00
2019-02-14T16:53:59.468Z,20.00
2019-02-14T16:54:59.464Z,16.00
2019-02-14T16:56:02.178Z,16.00
2019-02-14T16:56:59.456Z,12.00
2019-02-14T16:57:59.477Z,12.00
2019-02-14T16:58:59.447Z,8.00
2019-02-14T16:59:59.444Z,4.00
2019-02-14T17:00:59.442Z,4.00
2019-02-14T17:01:59.435Z,8.00
2019-02-14T17:02:59.439Z,4.00
2019-02-14T17:03:59.426Z,0.00
2019-02-14T17:04:59.425Z,4.00
2019-02-14T17:05:59.417Z,4.00
2019-02-14T17:06:59.419Z,0.00
2019-02-14T17:07:59.413Z,4.00
2019-02-14T17:08:59.413Z,0.00
2019-02-14T17:09:59.401Z,4.00
2019-02-14T17:10:59.700Z,0.00
2019-02-14T17:11:59.401Z,0.00
2019-02-14T17:12:59.394Z,0.00
2019-02-14T17:13:59.408Z,0.00
2019-02-14T17:14:59.385Z,0.00
2019-02-14T17:15:59.377Z,0.00
2019-02-14T17:16:59.378Z,0.00
2019-02-14T17:17:59.369Z,0.00
2019-02-14T17:18:59.366Z,0.00
2019-02-14T17:19:59.362Z,0.00
2019-02-14T17:20:59.361Z,0.00
2019-02-14T17:21:59.353Z,0.00
2019-02-14T17:22:59.351Z,0.00
2019-02-14T17:23:59.344Z,0.00
2019-02-14T17:24:59.342Z,0.00
2019-02-14T17:25:59.367Z,0.00
2019-02-14T17:26:59.333Z,0.00
2019-02-14T17:27:59.323Z,0.00
2019-02-14T17:28:59.322Z,0.00
2019-02-14T17:29:59.326Z,0.00
2019-02-14T17:30:59.316Z,0.00
2019-02-14T17:31:59.307Z,0.00
2019-02-14T17:32:59.305Z,0.00
2019-02-14T17:33:59.298Z,0.00
2019-02-14T17:34:59.295Z,0.00
2019-02-14T17:35:59.286Z,0.00
2019-02-14T17:36:59.285Z,0.00
2019-02-14T17:37:59.276Z,0.00
2019-02-14T17:38:59.274Z,0.00
2019-02-14T17:39:59.270Z,0.00
2019-02-14T17:40:59.565Z,0.00
2019-02-14T17:41:59.258Z,0.00
2019-02-14T17:42:59.255Z,0.00
2019-02-14T17:43:59.254Z,0.00
2019-02-14T17:44:59.251Z,0.00
2019-02-14T17:45:59.242Z,0.00
2019-02-14T17:46:59.237Z,0.00
2019-02-14T17:47:59.228Z,0.00
2019-02-14T17:48:59.228Z,0.00
2019-02-14T17:49:59.218Z,0.00
2019-02-14T17:50:59.214Z,0.00
2019-02-14T17:51:59.210Z,0.00
2019-02-14T17:52:59.207Z,0.00
2019-02-14T17:53:59.201Z,0.00
2019-02-14T17:54:59.196Z,0.00
2019-02-14T17:55:59.186Z,0.00
2019-02-14T17:56:59.184Z,0.00
2019-02-14T17:57:59.176Z,0.00
2019-02-14T17:58:59.173Z,0.00
2019-02-14T17:59:59.168Z,0.00
2019-02-14T18:00:59.197Z,0.00
2019-02-14T18:01:59.157Z,0.00
2019-02-14T18:02:59.154Z,0.00
2019-02-14T18:03:59.145Z,0.00
2019-02-14T18:04:59.142Z,0.00
2019-02-14T18:05:59.134Z,0.00
2019-02-14T18:06:59.131Z,0.00
2019-02-14T18:07:59.126Z,0.00
2019-02-14T18:08:59.123Z,0.00
2019-02-14T18:09:59.115Z,0.00
2019-02-14T18:10:59.412Z,0.00
2019-02-14T18:11:59.105Z,0.00
2019-02-14T18:12:59.101Z,0.00
2019-02-14T18:13:59.125Z,0.00
2019-02-14T18:14:59.090Z,0.00
2019-02-14T18:15:59.080Z,0.00
2019-02-14T18:16:59.081Z,0.00
2019-02-14T18:17:59.068Z,0.00
2019-02-14T18:18:59.065Z,0.00
2019-02-14T18:19:59.061Z,0.00
2019-02-14T18:20:59.057Z,0.00
2019-02-14T18:21:59.053Z,0.00
2019-02-14T18:22:59.045Z,0.00
2019-02-14T18:23:59.035Z,0.00
2019-02-14T18:24:59.033Z,0.00
2019-02-14T18:25:59.025Z,0.00
2019-02-14T18:26:59.021Z,0.00
2019-02-14T18:27:59.012Z,0.00
2019-02-14T18:28:59.011Z,0.00
2019-02-14T18:29:59.001Z,0.00
2019-02-14T18:30:58.997Z,0.00
2019-02-14T18:32:01.621Z,0.00
2019-02-14T18:32:58.989Z,0.00
2019-02-14T18:33:58.982Z,0.00
2019-02-14T18:34:58.977Z,0.00
2019-02-14T18:35:58.967Z,0.00
2019-02-14T18:36:58.964Z,0.00
2019-02-14T18:37:58.955Z,0.00
